Hovedside
METAR-TAF:

METAR-TAF

Lufthavner :

Kronoby lufthavn

Karleby, Finland

breddegrad: 63-43N, lengdegrad: 023-09E, høyde over havet: 25 m

Gjeldene værobservasjon

Denne rapporten ble laget for 34 minutter siden, klokken 12:20 UTC
Vind 6 kt fra Øst-nordøst, skiftende mellom Nord og Øst
Temperatur 30°C
Luftfuktighet 29%
Trykk 1011 hPa
Sikt 10 km eller mer
ingen skyer under 1500 m og ingen bygeskyer

METAR: EFKK 201220Z AUTO 06006KT 350V100 CAVOK 30/10 Q1011

Tid: 15:54 (12:54 UTC)

Varsel

Denne rapporten ble laget for 1 time og 16 minutter siden, klokken 11:38 UTC
Varsel gyldig fra 20. klokken 12 UTC til 20. klokken 21 UTC
Vind 10 kt fra Øst
Sikt 10 km eller mer
ingen skyer under 1500 m og ingen bygeskyer
Blir
fra 20. klokken 13 UTC til 20. klokken 15 UTC
Vind 8 kt fra Nord-nordøst

TAF: EFKK 201138Z 2012/2021 08010KT CAVOK BECMG 2013/2015 02008KT

Værobservasjoner og værvarsel for over 4000 flyplasser (METAR- og TAF-rapporter).

Tilgjengelige stasjoner er representert av de røde og gule prikkene på kartet.

Hold musepekeren over prikken for å se navnet på stasjonen.

Klikk så for å se værobservasjoner og -varsler.

For å forandre kartet kan du klikke på den grønne knappen med svart kryss for å zoome inn, på den grønne knappen med strek for å zoome ut, eller på de grønne pilene for å se tilstøtende kart.


METAR-TAF: